createdAt,value
2023-05-06T00:00:06.547Z,95408.56
2023-05-06T00:02:36.072Z,95409.88
2023-05-06T00:05:04.861Z,95466.38
2023-05-06T00:07:33.065Z,95444.44
2023-05-06T00:10:01.054Z,95433.81
2023-05-06T00:12:29.064Z,95455.03
2023-05-06T00:14:57.097Z,95448.66
2023-05-06T00:17:25.089Z,95442.31
2023-05-06T00:19:54.631Z,95452.34
2023-05-06T00:22:22.575Z,95390.66
2023-05-06T00:24:50.520Z,95455.69
2023-05-06T00:27:18.706Z,95445.22
2023-05-06T00:29:46.659Z,95447.00
2023-05-06T00:32:14.580Z,95452.66
2023-05-06T00:34:42.588Z,95417.56
2023-05-06T00:37:11.929Z,95447.63
2023-05-06T00:39:39.907Z,95450.47
2023-05-06T00:42:07.961Z,95357.53
2023-05-06T00:44:35.947Z,95447.00
2023-05-06T00:47:04.515Z,95451.75
2023-05-06T00:49:32.930Z,95446.06
2023-05-06T00:52:01.855Z,95438.78
2023-05-06T00:54:31.681Z,95426.44
2023-05-06T00:56:59.813Z,95426.78
2023-05-06T00:59:27.868Z,95424.56
2023-05-06T01:01:56.054Z,95427.75
2023-05-06T01:04:25.541Z,95434.38
2023-05-06T01:07:03.833Z,95446.91
2023-05-06T01:09:42.836Z,95451.34
2023-05-06T01:12:18.330Z,95436.16
2023-05-06T01:14:56.962Z,95417.19
2023-05-06T01:17:28.693Z,95440.72
2023-05-06T01:20:01.809Z,95435.66
2023-05-06T01:22:31.647Z,95414.63
2023-05-06T01:25:01.755Z,95434.28
2023-05-06T01:27:30.306Z,95439.94
2023-05-06T01:30:00.771Z,95404.03
2023-05-06T01:32:39.959Z,95439.63
2023-05-06T01:35:18.080Z,95397.09
2023-05-06T01:37:57.419Z,95419.72
2023-05-06T01:40:30.313Z,95414.81
2023-05-06T01:42:58.876Z,95330.84
2023-05-06T01:45:29.906Z,95389.03
2023-05-06T01:47:58.650Z,95407.84
2023-05-06T01:50:27.304Z,95419.41
2023-05-06T01:52:59.211Z,95401.50
2023-05-06T01:55:28.655Z,95437.72
2023-05-06T01:57:57.736Z,95413.88
2023-05-06T02:00:26.617Z,95435.06
2023-05-06T02:02:54.880Z,95430.59
2023-05-06T02:05:22.831Z,95430.78
2023-05-06T02:07:51.392Z,95417.00
2023-05-06T02:10:19.617Z,95424.13
2023-05-06T02:12:49.569Z,95423.34
2023-05-06T02:15:17.629Z,95418.44
2023-05-06T02:17:46.284Z,95422.06
2023-05-06T02:20:14.487Z,95396.59
2023-05-06T02:22:42.670Z,95414.13
2023-05-06T02:25:11.271Z,95431.06
2023-05-06T02:27:39.590Z,95435.03
2023-05-06T02:30:09.797Z,95427.13
2023-05-06T02:32:37.961Z,95427.44
2023-05-06T02:35:07.048Z,95412.44
2023-05-06T02:37:35.173Z,95414.00
2023-05-06T02:40:03.207Z,95438.69
2023-05-06T02:42:31.299Z,95441.66
2023-05-06T02:44:59.458Z,95413.38
2023-05-06T02:47:28.759Z,95440.72
2023-05-06T02:49:56.947Z,95391.63
2023-05-06T02:52:24.966Z,95437.06
2023-05-06T02:54:53.182Z,95445.44
2023-05-06T02:57:21.177Z,95450.00
2023-05-06T02:59:49.144Z,95453.03
2023-05-06T03:02:17.060Z,95412.13
2023-05-06T03:04:46.506Z,95435.59
2023-05-06T03:07:14.676Z,95452.22
2023-05-06T03:09:42.606Z,95416.09
2023-05-06T03:12:10.588Z,95453.06
2023-05-06T03:14:38.640Z,95453.22
2023-05-06T03:17:06.851Z,95450.41
2023-05-06T03:19:34.841Z,95455.16
2023-05-06T03:22:04.285Z,95462.47
2023-05-06T03:24:32.363Z,95448.84
2023-05-06T03:27:01.861Z,95464.22
2023-05-06T03:29:29.983Z,95440.94
2023-05-06T03:31:58.160Z,95422.53
2023-05-06T03:34:26.311Z,95442.94
2023-05-06T03:36:54.330Z,95477.72
2023-05-06T03:39:23.826Z,95472.09
2023-05-06T03:41:51.911Z,95470.03
2023-05-06T03:44:19.932Z,95456.25
2023-05-06T03:46:48.023Z,95436.34
2023-05-06T03:49:15.987Z,95452.38
2023-05-06T03:51:43.997Z,95469.81
2023-05-06T03:54:12.155Z,95466.97
2023-05-06T03:56:41.535Z,95452.88
2023-05-06T03:59:09.993Z,95458.44
2023-05-06T04:01:37.991Z,95485.09
2023-05-06T04:04:06.415Z,95493.81
2023-05-06T04:06:34.433Z,95478.00
2023-05-06T04:09:02.477Z,95459.97
2023-05-06T04:11:31.154Z,95500.22
2023-05-06T04:14:03.022Z,95490.09
2023-05-06T04:16:31.372Z,95410.69
2023-05-06T04:19:02.860Z,95490.44
2023-05-06T04:21:32.552Z,95498.03
2023-05-06T04:24:00.545Z,95489.31
2023-05-06T04:26:29.200Z,95485.50
2023-05-06T04:28:57.962Z,95439.94
2023-05-06T04:34:17.576Z,95477.91
2023-05-06T04:36:46.096Z,95498.00
2023-05-06T04:39:14.086Z,95491.34
2023-05-06T04:41:42.047Z,95482.47
2023-05-06T04:44:10.184Z,95462.50
2023-05-06T04:46:39.673Z,95513.22
2023-05-06T04:49:07.664Z,95513.91
2023-05-06T04:51:35.727Z,95494.50
2023-05-06T04:54:03.723Z,95502.38
2023-05-06T04:56:31.782Z,95500.06
2023-05-06T04:58:59.727Z,95502.28
2023-05-06T05:01:27.699Z,95507.31
2023-05-06T05:03:59.616Z,95510.84
2023-05-06T05:06:28.912Z,95519.88
2023-05-06T05:08:59.351Z,95503.22
2023-05-06T05:11:42.019Z,95507.31
2023-05-06T05:14:10.032Z,95515.59
2023-05-06T05:16:38.648Z,95512.97
2023-05-06T05:19:13.136Z,95515.88
2023-05-06T05:21:41.613Z,95519.56
2023-05-06T05:24:09.717Z,95525.31
2023-05-06T05:26:37.753Z,95502.97
2023-05-06T05:29:06.666Z,95516.31
2023-05-06T05:31:34.757Z,95517.03
2023-05-06T05:34:03.287Z,95516.59
2023-05-06T05:36:35.293Z,95499.94
2023-05-06T05:39:04.150Z,95517.75
2023-05-06T05:41:32.257Z,95521.56
2023-05-06T05:44:00.548Z,95496.66
2023-05-06T05:46:28.663Z,95495.09
2023-05-06T05:48:56.753Z,95499.03
2023-05-06T05:51:24.917Z,95511.66
2023-05-06T05:53:54.311Z,95498.00
2023-05-06T05:56:22.400Z,95536.00
2023-05-06T05:58:50.615Z,95513.91
2023-05-06T06:01:18.730Z,95469.94
2023-05-06T06:03:47.176Z,95511.31
2023-05-06T06:06:15.527Z,95528.56
2023-05-06T06:08:46.156Z,95519.31
2023-05-06T06:11:15.893Z,95519.97
2023-05-06T06:13:45.300Z,95522.69
2023-05-06T06:16:13.423Z,95541.41
2023-05-06T06:18:41.403Z,95542.53
2023-05-06T06:21:09.524Z,95516.94
2023-05-06T06:23:37.560Z,95508.13
2023-05-06T06:26:05.717Z,95536.88
2023-05-06T06:28:35.159Z,95510.84
2023-05-06T06:31:03.593Z,95528.09
2023-05-06T06:33:32.085Z,95538.25
2023-05-06T06:36:01.493Z,95539.94
2023-05-06T06:38:30.266Z,95535.09
2023-05-06T06:40:58.266Z,95495.41
2023-05-06T06:43:26.894Z,95531.03
2023-05-06T06:45:56.439Z,95527.88
2023-05-06T06:48:24.477Z,95521.88
2023-05-06T06:50:52.632Z,95545.22
2023-05-06T06:53:21.380Z,95544.56
2023-05-06T06:55:49.681Z,95544.34
2023-05-06T06:58:17.690Z,95510.25
2023-05-06T07:00:46.022Z,95531.91
2023-05-06T07:03:15.997Z,95537.63
2023-05-06T07:05:44.132Z,95544.00
2023-05-06T07:08:12.389Z,95524.94
2023-05-06T07:10:40.517Z,95537.16
2023-05-06T07:13:08.534Z,95513.78
2023-05-06T07:15:36.951Z,95502.53
2023-05-06T07:18:05.315Z,95418.13
2023-05-06T07:20:34.840Z,95543.38
2023-05-06T07:23:03.095Z,95483.56
2023-05-06T07:25:31.484Z,95529.63
2023-05-06T07:27:59.555Z,95540.06
2023-05-06T07:30:28.113Z,95550.69
2023-05-06T07:32:56.222Z,95555.53
2023-05-06T07:35:24.214Z,95555.91
2023-05-06T07:37:54.349Z,95545.09
2023-05-06T07:40:22.492Z,95552.47
2023-05-06T07:42:50.648Z,95538.78
2023-05-06T07:45:22.309Z,95551.19
2023-05-06T07:47:50.673Z,95551.84
2023-05-06T07:50:18.780Z,95549.66
2023-05-06T07:52:46.959Z,95519.13
2023-05-06T07:55:16.385Z,95554.88
2023-05-06T07:57:44.548Z,95541.06
2023-05-06T08:00:13.278Z,95509.03
2023-05-06T08:02:44.495Z,95552.03
2023-05-06T08:05:12.983Z,95516.06
2023-05-06T08:07:42.474Z,95543.13
2023-05-06T08:10:14.200Z,95502.78
2023-05-06T08:12:43.673Z,95536.38
2023-05-06T08:15:12.894Z,95540.34
2023-05-06T08:17:41.113Z,95543.91
2023-05-06T08:20:10.121Z,95544.88
2023-05-06T08:22:38.322Z,95546.59
2023-05-06T08:25:06.953Z,95550.50
2023-05-06T08:27:38.042Z,95540.94
2023-05-06T08:30:09.014Z,95519.00
2023-05-06T08:32:37.089Z,95531.91
2023-05-06T08:35:05.634Z,95541.25
2023-05-06T08:37:33.646Z,95548.56
2023-05-06T08:40:01.932Z,95531.56
2023-05-06T08:42:31.955Z,95536.03
2023-05-06T08:45:00.312Z,95529.53
2023-05-06T08:47:29.929Z,95541.53
2023-05-06T08:49:57.979Z,95538.53
2023-05-06T08:52:26.155Z,95534.59
2023-05-06T08:55:01.416Z,95519.47
2023-05-06T08:57:31.736Z,95511.91
2023-05-06T08:59:59.976Z,95534.63
2023-05-06T09:02:29.985Z,95530.44
2023-05-06T09:04:58.179Z,95527.56
2023-05-06T09:07:26.184Z,95478.13
2023-05-06T09:09:54.172Z,95421.22
2023-05-06T09:12:22.180Z,95474.34
2023-05-06T09:14:52.123Z,95422.78
2023-05-06T09:17:24.155Z,95507.72
2023-05-06T09:19:57.071Z,95495.34
2023-05-06T09:22:25.650Z,95502.78
2023-05-06T09:24:56.910Z,95460.06
2023-05-06T09:27:26.304Z,95493.78
2023-05-06T09:30:02.650Z,95504.88
2023-05-06T09:32:30.741Z,95494.72
2023-05-06T09:35:00.192Z,95490.00
2023-05-06T09:37:29.209Z,95478.25
2023-05-06T09:39:58.628Z,95485.34
2023-05-06T09:42:28.782Z,95469.25
2023-05-06T09:45:00.546Z,95485.19
2023-05-06T09:47:34.760Z,95460.97
2023-05-06T09:50:05.427Z,95464.13
2023-05-06T09:52:33.664Z,95480.63
2023-05-06T09:55:02.919Z,95481.25
2023-05-06T09:57:32.038Z,95475.88
2023-05-06T10:00:01.406Z,95473.50
2023-05-06T10:02:31.795Z,95478.44
2023-05-06T10:05:00.700Z,95476.78
2023-05-06T10:07:30.849Z,95462.16
2023-05-06T10:10:00.404Z,95435.50
2023-05-06T10:12:28.780Z,95482.00
2023-05-06T10:14:57.339Z,95484.34
2023-05-06T10:17:27.003Z,95445.19
2023-05-06T10:20:00.605Z,95434.03
2023-05-06T10:22:42.565Z,95468.22
2023-05-06T10:25:19.447Z,95481.78
2023-05-06T10:27:48.839Z,95471.88
2023-05-06T10:30:18.046Z,95482.72
2023-05-06T10:32:47.188Z,95474.88
2023-05-06T10:35:23.827Z,95469.47
2023-05-06T10:37:54.900Z,95459.44
2023-05-06T10:40:24.477Z,95462.19
2023-05-06T10:42:52.486Z,95447.31
2023-05-06T10:45:20.860Z,95466.13
2023-05-06T10:48:16.166Z,95404.66
2023-05-06T10:50:46.240Z,95464.16
2023-05-06T10:53:16.075Z,95451.50
2023-05-06T10:55:44.464Z,95452.41
2023-05-06T10:58:15.400Z,95408.16
2023-05-06T11:00:43.801Z,95450.41
2023-05-06T11:03:13.922Z,95457.41
2023-05-06T11:05:49.971Z,95406.06
2023-05-06T11:08:25.210Z,95458.31
2023-05-06T11:10:53.778Z,95460.53
2023-05-06T11:13:27.859Z,95443.00
2023-05-06T11:15:59.792Z,95435.16
2023-05-06T11:18:46.584Z,95466.88
2023-05-06T11:21:36.684Z,95459.03
2023-05-06T11:24:13.322Z,95462.56
2023-05-06T11:26:42.406Z,95449.16
2023-05-06T11:29:10.790Z,95424.88
2023-05-06T11:31:44.257Z,95448.34
2023-05-06T11:34:15.321Z,95438.53
2023-05-06T11:37:06.660Z,95455.41
2023-05-06T11:39:40.767Z,95440.66
2023-05-06T11:42:10.379Z,95429.66
2023-05-06T11:44:40.688Z,95439.81
2023-05-06T11:47:10.368Z,95443.34
2023-05-06T11:49:41.586Z,95453.16
2023-05-06T11:52:10.245Z,95448.28
2023-05-06T11:54:40.752Z,95447.41
2023-05-06T11:57:09.762Z,95447.66
2023-05-06T11:59:38.945Z,95405.41
2023-05-06T12:02:08.801Z,95408.94
2023-05-06T12:04:43.476Z,95446.13
2023-05-06T12:07:13.067Z,95448.88
2023-05-06T12:09:44.686Z,95441.44
2023-05-06T12:12:16.342Z,95435.97
2023-05-06T12:14:45.991Z,95434.78
2023-05-06T12:17:15.612Z,95432.00
2023-05-06T12:19:43.755Z,95433.19
2023-05-06T12:22:19.393Z,95435.53
2023-05-06T12:24:50.028Z,95437.81
2023-05-06T12:27:30.814Z,95438.69
2023-05-06T12:29:58.803Z,95430.06
2023-05-06T12:32:30.716Z,95402.69
2023-05-06T12:35:00.525Z,95419.91
2023-05-06T12:37:30.459Z,95426.97
2023-05-06T12:39:59.993Z,95405.34
2023-05-06T12:42:28.221Z,95429.19
2023-05-06T12:44:56.383Z,95405.28
2023-05-06T12:47:26.599Z,95406.13
2023-05-06T12:49:58.205Z,95425.34
2023-05-06T12:52:28.739Z,95391.28
2023-05-06T12:54:57.200Z,95419.50
2023-05-06T12:57:26.588Z,95416.00
2023-05-06T12:59:56.563Z,95401.88
2023-05-06T13:02:24.638Z,95414.81
2023-05-06T13:04:52.874Z,95364.31
2023-05-06T13:07:22.356Z,95413.19
2023-05-06T13:09:50.584Z,95364.69
2023-05-06T13:12:18.811Z,95402.66
2023-05-06T13:14:48.152Z,95417.19
2023-05-06T13:17:16.279Z,95406.94
2023-05-06T13:19:45.309Z,95379.53
2023-05-06T13:22:13.563Z,95368.56
2023-05-06T13:24:41.679Z,95417.16
2023-05-06T13:27:09.787Z,95411.69
2023-05-06T13:29:37.706Z,95410.91
2023-05-06T13:32:08.980Z,95411.63
2023-05-06T13:34:37.753Z,95389.75
2023-05-06T13:37:05.888Z,95354.09
2023-05-06T13:39:36.648Z,95405.41
2023-05-06T13:42:06.721Z,95396.03
2023-05-06T13:44:36.378Z,95406.94
2023-05-06T13:47:04.370Z,95404.53
2023-05-06T13:49:35.285Z,95373.59
2023-05-06T13:52:08.207Z,95404.56
2023-05-06T13:54:36.472Z,95406.94
2023-05-06T13:57:04.726Z,95383.44
2023-05-06T13:59:34.768Z,95401.50
2023-05-06T14:02:07.009Z,95390.91
2023-05-06T14:04:38.690Z,95397.97
2023-05-06T14:07:06.704Z,95349.81
2023-05-06T14:09:34.814Z,95339.63
2023-05-06T14:12:02.978Z,95392.09
2023-05-06T14:14:30.909Z,95402.31
2023-05-06T14:16:58.825Z,95323.91
2023-05-06T14:19:27.180Z,95394.38
2023-05-06T14:21:57.819Z,95391.22
2023-05-06T14:24:25.966Z,95383.78
2023-05-06T14:26:54.163Z,95396.34
2023-05-06T14:29:22.119Z,95402.97
2023-05-06T14:31:50.129Z,95399.78
2023-05-06T14:34:18.235Z,95366.16
2023-05-06T14:36:46.275Z,95399.50
2023-05-06T14:39:15.734Z,95359.19
2023-05-06T14:41:43.665Z,95387.81
2023-05-06T14:44:11.672Z,95252.38
2023-05-06T14:46:39.686Z,95398.72
2023-05-06T14:49:07.564Z,95399.06
2023-05-06T14:51:35.593Z,95410.81
2023-05-06T14:54:03.741Z,95390.06
2023-05-06T14:56:35.558Z,95402.19
2023-05-06T14:59:04.258Z,95405.28
2023-05-06T15:01:33.722Z,95413.09
2023-05-06T15:04:01.749Z,95414.22
2023-05-06T15:06:29.775Z,95412.63
2023-05-06T15:08:57.673Z,95402.72
2023-05-06T15:11:25.668Z,95388.66
2023-05-06T15:13:55.593Z,95409.44
2023-05-06T15:16:23.681Z,95408.28
2023-05-06T15:18:51.675Z,95373.72
2023-05-06T15:21:19.685Z,95409.78
2023-05-06T15:23:48.287Z,95380.78
2023-05-06T15:26:16.316Z,95333.06
2023-05-06T15:28:44.274Z,95380.78
2023-05-06T15:31:13.556Z,95396.03
2023-05-06T15:33:41.757Z,95401.09
2023-05-06T15:36:10.046Z,95399.94
2023-05-06T15:38:59.781Z,95403.50
2023-05-06T15:41:30.484Z,95402.34
2023-05-06T15:43:59.559Z,95357.25
2023-05-06T15:46:30.640Z,95403.91
2023-05-06T15:49:20.974Z,95408.22
2023-05-06T15:51:47.088Z,95403.91
2023-05-06T15:54:18.365Z,95338.13
2023-05-06T15:56:46.638Z,95401.97
2023-05-06T15:59:14.892Z,95384.72
2023-05-06T16:04:17.102Z,95400.41
2023-05-06T16:06:45.225Z,95391.38
2023-05-06T16:09:13.174Z,95397.59
2023-05-06T16:11:43.868Z,95393.25
2023-05-06T16:14:11.848Z,95401.44
2023-05-06T16:16:40.966Z,95408.88
2023-05-06T16:19:10.743Z,95349.28
2023-05-06T16:21:38.773Z,95388.06
2023-05-06T16:24:07.225Z,95396.25
2023-05-06T16:26:35.607Z,95402.88
2023-05-06T16:29:03.611Z,95404.78
2023-05-06T16:31:32.015Z,95392.59
2023-05-06T16:34:00.091Z,95400.34
2023-05-06T16:36:29.697Z,95397.91
2023-05-06T16:38:57.663Z,95358.22
2023-05-06T16:41:25.721Z,95385.59
2023-05-06T16:43:54.893Z,95379.25
2023-05-06T16:46:24.394Z,95383.91
2023-05-06T16:48:54.177Z,95406.63
2023-05-06T16:51:22.097Z,95405.78
2023-05-06T16:53:51.501Z,95404.19
2023-05-06T16:56:19.491Z,95404.91
2023-05-06T16:58:47.473Z,95403.69
2023-05-06T17:01:15.550Z,95396.50
2023-05-06T17:03:43.555Z,95411.75
2023-05-06T17:06:11.589Z,95415.19
2023-05-06T17:08:39.835Z,95408.47
2023-05-06T17:11:09.157Z,95424.06
2023-05-06T17:13:40.287Z,95417.72
2023-05-06T17:16:10.272Z,95372.44
2023-05-06T17:18:38.344Z,95418.97
2023-05-06T17:21:11.556Z,95421.22
2023-05-06T17:23:39.815Z,95392.88
2023-05-06T17:26:10.534Z,95420.31
2023-05-06T17:28:38.809Z,95413.94
2023-05-06T17:31:06.950Z,95432.59
2023-05-06T17:33:35.566Z,95431.34
2023-05-06T17:36:03.501Z,95414.72
2023-05-06T17:38:31.604Z,95422.44
2023-05-06T17:41:00.006Z,95440.66
2023-05-06T17:43:29.284Z,95384.38
2023-05-06T17:45:57.304Z,95421.13
2023-05-06T17:48:25.337Z,95444.59
2023-05-06T17:50:53.291Z,95405.50
2023-05-06T17:53:21.297Z,95429.81
2023-05-06T17:55:49.314Z,95445.53
2023-05-06T17:58:17.642Z,95407.88
2023-05-06T18:00:47.008Z,95464.75
2023-05-06T18:03:15.118Z,95467.06
2023-05-06T18:05:43.169Z,95468.56
2023-05-06T18:08:11.105Z,95477.03
2023-05-06T18:10:40.602Z,95486.28
2023-05-06T18:13:10.000Z,95469.28
2023-05-06T18:15:37.994Z,95475.13
2023-05-06T18:18:07.587Z,95436.53
2023-05-06T18:20:35.674Z,95491.47
2023-05-06T18:23:03.621Z,95490.59
2023-05-06T18:25:31.627Z,95499.34
2023-05-06T18:27:59.785Z,95502.84
2023-05-06T18:30:27.734Z,95500.06
2023-05-06T18:32:56.910Z,95507.44
2023-05-06T18:35:26.478Z,95485.56
2023-05-06T18:37:54.926Z,95486.13
2023-05-06T18:40:23.355Z,95503.66
2023-05-06T18:42:51.378Z,95463.78
2023-05-06T18:45:19.480Z,95510.38
2023-05-06T18:47:47.492Z,95513.53
2023-05-06T18:50:16.097Z,95469.47
2023-05-06T18:52:45.499Z,95493.97
2023-05-06T18:55:13.853Z,95511.97
2023-05-06T18:57:41.914Z,95505.84
2023-05-06T19:00:11.038Z,95522.16
2023-05-06T19:02:39.067Z,95507.25
2023-05-06T19:05:08.392Z,95471.81
2023-05-06T19:07:36.718Z,95522.84
2023-05-06T19:10:07.456Z,95525.13
2023-05-06T19:12:35.902Z,95517.94
2023-05-06T19:15:03.938Z,95527.09
2023-05-06T19:17:31.986Z,95524.78
2023-05-06T19:20:00.011Z,95519.91
2023-05-06T19:22:29.831Z,95525.81
2023-05-06T19:24:59.027Z,95526.34
2023-05-06T19:27:28.303Z,95472.09
2023-05-06T19:29:56.675Z,95519.69
2023-05-06T19:32:24.937Z,95525.66
2023-05-06T19:34:52.899Z,95519.81
2023-05-06T19:37:21.219Z,95517.97
2023-05-06T19:39:50.047Z,95527.81
2023-05-06T19:42:18.260Z,95524.19
2023-05-06T19:44:49.802Z,95527.63
2023-05-06T19:47:17.872Z,95499.59
2023-05-06T19:49:46.204Z,95530.25
2023-05-06T19:52:14.364Z,95529.63
2023-05-06T19:54:42.516Z,95518.84
2023-05-06T19:57:10.671Z,95523.50
2023-05-06T19:59:38.682Z,95476.72
2023-05-06T20:02:11.126Z,95462.94
2023-05-06T20:04:39.194Z,95526.31
2023-05-06T20:07:08.361Z,95509.16
2023-05-06T20:09:38.986Z,95536.41
2023-05-06T20:12:07.940Z,95509.34
2023-05-06T20:14:35.955Z,95523.97
2023-05-06T20:17:03.968Z,95527.03
2023-05-06T20:19:33.543Z,95521.78
2023-05-06T20:22:01.699Z,95521.91
2023-05-06T20:24:32.681Z,95529.72
2023-05-06T20:27:00.697Z,95528.25
2023-05-06T20:29:28.735Z,95516.41
2023-05-06T20:31:56.809Z,95524.38
2023-05-06T20:34:25.588Z,95525.19
2023-05-06T20:36:56.267Z,95530.69
2023-05-06T20:39:24.639Z,95533.75
2023-05-06T20:41:52.575Z,95501.69
2023-05-06T20:44:20.535Z,95531.66
2023-05-06T20:46:48.508Z,95518.59
2023-05-06T20:49:16.559Z,95535.59
2023-05-06T20:51:44.701Z,95534.91
2023-05-06T20:54:13.952Z,95544.19
2023-05-06T20:56:42.998Z,95534.72
2023-05-06T20:59:10.942Z,95535.34
2023-05-06T21:01:39.222Z,95541.09
2023-05-06T21:04:07.422Z,95527.78
2023-05-06T21:06:35.452Z,95533.50
2023-05-06T21:09:03.401Z,95544.72
2023-05-06T21:11:37.772Z,95539.97
2023-05-06T21:14:05.896Z,95497.91
2023-05-06T21:16:33.887Z,95542.31
2023-05-06T21:19:01.954Z,95491.81
2023-05-06T21:21:32.833Z,95540.31
2023-05-06T21:24:01.206Z,95473.41
2023-05-06T21:26:31.638Z,95470.75
2023-05-06T21:29:01.719Z,95529.13
2023-05-06T21:31:30.420Z,95521.25
2023-05-06T21:34:00.154Z,95486.22
2023-05-06T21:36:28.443Z,95486.44
2023-05-06T21:39:02.261Z,95532.00
2023-05-06T21:41:31.269Z,95530.44
2023-05-06T21:44:00.777Z,95527.25
2023-05-06T21:46:28.816Z,95543.44
2023-05-06T21:48:57.058Z,95525.38
2023-05-06T21:51:27.563Z,95505.22
2023-05-06T21:53:55.625Z,95529.59
2023-05-06T21:56:24.391Z,95524.22
2023-05-06T21:58:56.067Z,95526.03
2023-05-06T22:01:27.388Z,95519.63
2023-05-06T22:03:55.701Z,95532.41
2023-05-06T22:06:23.843Z,95529.69
2023-05-06T22:08:52.150Z,95535.66
2023-05-06T22:11:22.778Z,95517.84
2023-05-06T22:13:50.974Z,95523.84
2023-05-06T22:16:18.962Z,95529.59
2023-05-06T22:18:48.378Z,95526.97
2023-05-06T22:21:16.353Z,95536.50
2023-05-06T22:23:44.927Z,95520.50
2023-05-06T22:26:13.355Z,95543.81
2023-05-06T22:28:41.278Z,95530.72
2023-05-06T22:31:09.291Z,95541.19
2023-05-06T22:33:37.446Z,95536.09
2023-05-06T22:36:07.344Z,95537.00
2023-05-06T22:38:35.372Z,95538.25
2023-05-06T22:41:03.329Z,95537.22
2023-05-06T22:43:31.263Z,95544.41
2023-05-06T22:45:59.257Z,95538.19
2023-05-06T22:48:27.996Z,95533.19
2023-05-06T22:50:56.469Z,95538.66
2023-05-06T22:53:26.014Z,95469.22
2023-05-06T22:55:53.980Z,95535.66
2023-05-06T22:58:22.148Z,95529.38
2023-05-06T23:00:50.148Z,95531.72
2023-05-06T23:03:19.652Z,95531.91
2023-05-06T23:05:47.648Z,95529.84
2023-05-06T23:08:16.335Z,95525.59
2023-05-06T23:10:45.725Z,95481.84
2023-05-06T23:13:13.731Z,95484.69
2023-05-06T23:15:41.691Z,95537.50
2023-05-06T23:18:09.645Z,95497.19
2023-05-06T23:20:37.692Z,95516.63
2023-05-06T23:23:05.696Z,95525.59
2023-05-06T23:25:33.625Z,95531.00
2023-05-06T23:28:02.938Z,95487.56
2023-05-06T23:30:31.026Z,95518.84
2023-05-06T23:32:59.193Z,95533.94
2023-05-06T23:35:27.167Z,95537.63
2023-05-06T23:37:55.152Z,95527.47
2023-05-06T23:40:23.278Z,95543.59
2023-05-06T23:42:51.228Z,95540.16
2023-05-06T23:45:20.880Z,95541.88
2023-05-06T23:47:48.861Z,95523.38
2023-05-06T23:50:17.075Z,95527.84
2023-05-06T23:52:45.046Z,95541.94
2023-05-06T23:55:13.672Z,95537.06
2023-05-06T23:57:41.781Z,95540.47
